Federal Polaris — V7VQ3 — position and weather

sailwx.info

Track history (hours):
 
Tides and Currents Weather Stations Pressure Air Temp Water Temp Dewpoint Dewpoint Depression Visibility Wind Speed Wind Dir Waves Ship Positions

Federal Polaris

Last reported at 2016-Aug-24 06:17 UTC. Time now 2016-Aug-26 11:54 UTC.
Position N 29°57' E 122°15'.

Length 182 m; draft 6.4 m.

Type: Ship. MMSI: 538004185.

Date/timePositionNaut miles runAvg speedWind from/ knotsBaromVisibWave heightAir tempDewpointWater temp
2016-Aug-24 06:17N 29°57' E 122°15'2 1.0
2016-Aug-24 04:33N 29°56' E 122°13'0 0.1
2016-Aug-24 03:34N 29°56' E 122°13'0 0.1
2016-Aug-24 02:33N 29°56' E 122°13'0 0.2
2016-Aug-24 01:33N 29°56' E 122°13'0 0.1
2016-Aug-24 00:33N 29°56' E 122°13'0 0.0
2016-Aug-23 23:33N 29°56' E 122°13'0 0.0
2016-Aug-23 22:33N 29°56' E 122°13'0 0.0
2016-Aug-23 21:33N 29°56' E 122°13'0 0.0
2016-Aug-23 20:33N 29°56' E 122°13'0 0.2
2016-Aug-23 19:33N 29°56' E 122°13'1 1.3
2016-Aug-23 18:33N 29°55' E 122°12'8 8.3
2016-Aug-23 17:32N 29°48' E 122°15'1312.7
2016-Aug-23 16:32N 29°42' E 122°29'25 7.6
2016-Aug-23 13:15N 29°20' E 122°40'12 1.6
2016-Aug-23 05:31N 29°32' E 122°42'2 0.6
2016-Aug-23 01:28N 29°33' E 122°39'  
2016-Aug-20 19:21N 29°20' E 122°59'40 6.5
2016-Aug-20 13:13N 29°48' E 122°26'0 0.6
2016-Aug-20 12:32N 29°48' E 122°25'0 0.0
2016-Aug-20 11:33N 29°48' E 122°25'0 0.1
2016-Aug-20 10:32N 29°48' E 122°25'2 1.5
2016-Aug-20 09:33N 29°48' E 122°27'1 0.3
2016-Aug-20 04:33N 29°48' E 122°25'0 0.2
2016-Aug-20 03:33N 29°48' E 122°25'0 0.1
2016-Aug-20 02:32N 29°48' E 122°25'0 0.0
2016-Aug-20 01:14N 29°48' E 122°25'0 0.1
2016-Aug-20 00:33N 29°48' E 122°25'0 0.1
2016-Aug-19 23:33N 29°48' E 122°25'0 0.1
2016-Aug-19 22:33N 29°48' E 122°25'0 0.1
2016-Aug-19 21:33N 29°48' E 122°25'1 1.0
2016-Aug-19 20:33N 29°48' E 122°26'8 6.1
2016-Aug-19 19:10N 29°46' E 122°36'8 0.8
2016-Aug-19 09:13N 29°48' E 122°26'1 2.1
2016-Aug-19 08:32N 29°48' E 122°25'1 0.5
2016-Aug-19 05:33N 29°48' E 122°26'0 0.1
2016-Aug-19 03:22N 29°48' E 122°26'0 0.1
2016-Aug-18 23:13N 29°48' E 122°26'0 0.1
2016-Aug-18 22:33N 29°48' E 122°26'0 0.1
2016-Aug-18 21:31N 29°48' E 122°26'5 3.8
2016-Aug-18 20:09N 29°46' E 122°31'5 5.6
2016-Aug-18 19:17N 29°41' E 122°32'3 4.2
2016-Aug-18 18:31N 29°41' E 122°28'14 9.9
2016-Aug-18 17:08N 29°48' E 122°15'5 8.5
2016-Aug-18 16:33N 29°52' E 122°12'3 3.2
2016-Aug-18 15:33N 29°55' E 122°12'1 1.4
2016-Aug-18 14:33N 29°54' E 122°11'3 2.6
2016-Aug-18 13:33N 29°56' E 122°13'1 1.3
2016-Aug-18 12:33N 29°55' E 122°14'0 0.0
2016-Aug-18 11:32N 29°55' E 122°14'0 0.0
2016-Aug-18 10:32N 29°55' E 122°14'0 0.1
2016-Aug-18 09:32N 29°56' E 122°14'0 0.2
2016-Aug-18 08:33N 29°55' E 122°14'0 0.0
2016-Aug-18 07:33N 29°55' E 122°14'0 0.1
2016-Aug-18 06:33N 29°55' E 122°14'0 0.0
2016-Aug-18 05:33N 29°55' E 122°14'0 0.2
2016-Aug-18 04:33N 29°56' E 122°14'0 0.1
2016-Aug-18 03:33N 29°56' E 122°14'0 0.1
2016-Aug-18 02:32N 29°55' E 122°14'0 0.3
2016-Aug-18 01:33N 29°56' E 122°14'1 1.0
2016-Aug-18 00:33N 29°57' E 122°15'0 0.0
2016-Aug-17 23:33N 29°57' E 122°15'0 0.0
2016-Aug-17 08:33N 29°57' E 122°15'0 0.0
2016-Aug-16 07:33N 29°57' E 122°15'  
Track history (hours):
 
Tides and Currents Weather Stations Pressure Air Temp Water Temp Dewpoint Dewpoint Depression Visibility Wind Speed Wind Dir Waves Ship Positions

Federal Polaris

Last reported at 2016-Aug-24 06:17 UTC. Time now 2016-Aug-26 11:54 UTC.
Position N 29°57' E 122°15'.

Length 182 m; draft 6.4 m.

Type: Ship. MMSI: 538004185.

Date/timePositionNaut miles runAvg speedWind from/ knotsBaromVisibWave heightAir tempDewpointWater temp
2016-Aug-24 06:17N 29°57' E 122°15'2 1.0
2016-Aug-24 04:33N 29°56' E 122°13'0 0.1
2016-Aug-24 03:34N 29°56' E 122°13'0 0.1
2016-Aug-24 02:33N 29°56' E 122°13'0 0.2
2016-Aug-24 01:33N 29°56' E 122°13'0 0.1
2016-Aug-24 00:33N 29°56' E 122°13'0 0.0
2016-Aug-23 23:33N 29°56' E 122°13'0 0.0
2016-Aug-23 22:33N 29°56' E 122°13'0 0.0
2016-Aug-23 21:33N 29°56' E 122°13'0 0.0
2016-Aug-23 20:33N 29°56' E 122°13'0 0.2
2016-Aug-23 19:33N 29°56' E 122°13'1 1.3
2016-Aug-23 18:33N 29°55' E 122°12'8 8.3
2016-Aug-23 17:32N 29°48' E 122°15'1312.7
2016-Aug-23 16:32N 29°42' E 122°29'25 7.6
2016-Aug-23 13:15N 29°20' E 122°40'12 1.6
2016-Aug-23 05:31N 29°32' E 122°42'2 0.6
2016-Aug-23 01:28N 29°33' E 122°39'  
2016-Aug-20 19:21N 29°20' E 122°59'40 6.5
2016-Aug-20 13:13N 29°48' E 122°26'0 0.6
2016-Aug-20 12:32N 29°48' E 122°25'0 0.0
2016-Aug-20 11:33N 29°48' E 122°25'0 0.1
2016-Aug-20 10:32N 29°48' E 122°25'2 1.5
2016-Aug-20 09:33N 29°48' E 122°27'1 0.3
2016-Aug-20 04:33N 29°48' E 122°25'0 0.2
2016-Aug-20 03:33N 29°48' E 122°25'0 0.1
2016-Aug-20 02:32N 29°48' E 122°25'0 0.0
2016-Aug-20 01:14N 29°48' E 122°25'0 0.1
2016-Aug-20 00:33N 29°48' E 122°25'0 0.1
2016-Aug-19 23:33N 29°48' E 122°25'0 0.1
2016-Aug-19 22:33N 29°48' E 122°25'0 0.1
2016-Aug-19 21:33N 29°48' E 122°25'1 1.0
2016-Aug-19 20:33N 29°48' E 122°26'8 6.1
2016-Aug-19 19:10N 29°46' E 122°36'8 0.8
2016-Aug-19 09:13N 29°48' E 122°26'1 2.1
2016-Aug-19 08:32N 29°48' E 122°25'1 0.5
2016-Aug-19 05:33N 29°48' E 122°26'0 0.1
2016-Aug-19 03:22N 29°48' E 122°26'0 0.1
2016-Aug-18 23:13N 29°48' E 122°26'0 0.1
2016-Aug-18 22:33N 29°48' E 122°26'0 0.1
2016-Aug-18 21:31N 29°48' E 122°26'5 3.8
2016-Aug-18 20:09N 29°46' E 122°31'5 5.6
2016-Aug-18 19:17N 29°41' E 122°32'3 4.2
2016-Aug-18 18:31N 29°41' E 122°28'14 9.9
2016-Aug-18 17:08N 29°48' E 122°15'5 8.5
2016-Aug-18 16:33N 29°52' E 122°12'3 3.2
2016-Aug-18 15:33N 29°55' E 122°12'1 1.4
2016-Aug-18 14:33N 29°54' E 122°11'3 2.6
2016-Aug-18 13:33N 29°56' E 122°13'1 1.3
2016-Aug-18 12:33N 29°55' E 122°14'0 0.0
2016-Aug-18 11:32N 29°55' E 122°14'0 0.0
2016-Aug-18 10:32N 29°55' E 122°14'0 0.1
2016-Aug-18 09:32N 29°56' E 122°14'0 0.2
2016-Aug-18 08:33N 29°55' E 122°14'0 0.0
2016-Aug-18 07:33N 29°55' E 122°14'0 0.1
2016-Aug-18 06:33N 29°55' E 122°14'0 0.0
2016-Aug-18 05:33N 29°55' E 122°14'0 0.2
2016-Aug-18 04:33N 29°56' E 122°14'0 0.1
2016-Aug-18 03:33N 29°56' E 122°14'0 0.1
2016-Aug-18 02:32N 29°55' E 122°14'0 0.3
2016-Aug-18 01:33N 29°56' E 122°14'1 1.0
2016-Aug-18 00:33N 29°57' E 122°15'0 0.0
2016-Aug-17 23:33N 29°57' E 122°15'0 0.0
2016-Aug-17 08:33N 29°57' E 122°15'0 0.0
2016-Aug-16 07:33N 29°57' E 122°15'  

Dump ship's entire track history